createdAt,value
2023-05-05T00:02:18.241Z,9.06
2023-05-05T00:04:46.241Z,9.01
2023-05-05T00:07:14.126Z,8.97
2023-05-05T00:09:42.953Z,8.95
2023-05-05T00:12:10.869Z,8.92
2023-05-05T00:14:38.720Z,8.87
2023-05-05T00:17:06.666Z,8.83
2023-05-05T00:19:34.619Z,8.78
2023-05-05T00:22:02.483Z,8.75
2023-05-05T00:24:30.454Z,8.72
2023-05-05T00:26:58.357Z,8.69
2023-05-05T00:29:26.890Z,8.66
2023-05-05T00:31:54.876Z,8.63
2023-05-05T00:34:22.796Z,8.61
2023-05-05T00:36:50.670Z,8.58
2023-05-05T00:39:18.558Z,8.54
2023-05-05T00:41:46.507Z,8.50
2023-05-05T00:44:14.384Z,8.45
2023-05-05T00:46:43.406Z,8.39
2023-05-05T00:49:12.574Z,8.34
2023-05-05T00:51:40.538Z,8.62
2023-05-05T00:54:08.813Z,10.40
2023-05-05T00:56:37.590Z,12.06
2023-05-05T00:59:05.648Z,12.78
2023-05-05T01:01:33.872Z,12.01
2023-05-05T01:04:01.947Z,11.10
2023-05-05T01:06:51.908Z,10.48
2023-05-05T01:10:07.578Z,10.02
2023-05-05T01:13:09.128Z,9.60
2023-05-05T01:16:01.623Z,9.29
2023-05-05T01:18:42.126Z,9.04
2023-05-05T01:21:16.823Z,8.84
2023-05-05T01:24:06.973Z,8.68
2023-05-05T01:27:09.560Z,8.54
2023-05-05T01:30:03.898Z,8.39
2023-05-05T01:32:41.203Z,8.25
2023-05-05T01:35:18.406Z,8.13
2023-05-05T01:37:52.018Z,8.00
2023-05-05T01:40:28.024Z,7.88
2023-05-05T01:42:58.462Z,7.77
2023-05-05T01:45:32.321Z,7.96
2023-05-05T01:48:02.237Z,9.74
2023-05-05T01:50:31.401Z,11.36
2023-05-05T01:53:01.599Z,12.05
2023-05-05T01:55:32.215Z,11.16
2023-05-05T01:58:02.446Z,10.15
2023-05-05T02:00:32.266Z,9.43
2023-05-05T02:03:04.570Z,8.92
2023-05-05T02:05:34.331Z,8.50
2023-05-05T02:08:05.630Z,8.20
2023-05-05T02:10:34.490Z,7.94
2023-05-05T02:13:03.147Z,7.74
2023-05-05T02:15:33.759Z,7.87
2023-05-05T02:18:02.590Z,9.55
2023-05-05T02:20:31.887Z,11.27
2023-05-05T02:23:00.160Z,11.94
2023-05-05T02:25:37.353Z,11.03
2023-05-05T02:28:11.462Z,9.90
2023-05-05T02:30:40.807Z,9.06
2023-05-05T02:33:11.792Z,8.49
2023-05-05T02:35:42.256Z,8.11
2023-05-05T02:38:17.505Z,8.14
2023-05-05T02:40:49.933Z,9.73
2023-05-05T02:43:21.653Z,11.40
2023-05-05T02:45:49.822Z,12.04
2023-05-05T02:48:18.412Z,11.10
2023-05-05T02:50:46.367Z,10.15
2023-05-05T02:53:29.463Z,9.41
2023-05-05T02:56:11.392Z,8.83
2023-05-05T02:59:05.016Z,8.35
2023-05-05T03:01:59.939Z,8.96
2023-05-05T03:04:37.168Z,10.81
2023-05-05T03:07:11.849Z,11.83
2023-05-05T03:10:06.089Z,12.19
2023-05-05T03:12:48.598Z,10.93
2023-05-05T03:15:34.790Z,9.89
2023-05-05T03:18:06.517Z,9.23
2023-05-05T03:20:35.827Z,8.78
2023-05-05T03:23:08.007Z,8.40
2023-05-05T03:25:46.642Z,8.11
2023-05-05T03:28:33.265Z,7.85
2023-05-05T03:31:04.721Z,8.03
2023-05-05T03:33:33.015Z,9.86
2023-05-05T03:36:01.563Z,11.55
2023-05-05T03:38:29.546Z,12.22
2023-05-05T03:41:00.865Z,11.31
2023-05-05T03:43:29.075Z,10.33
2023-05-05T03:45:57.206Z,9.68
2023-05-05T03:48:25.895Z,9.27
2023-05-05T03:50:54.142Z,8.97
2023-05-05T03:53:23.188Z,8.73
2023-05-05T03:55:52.593Z,8.54
2023-05-05T03:58:20.580Z,8.38
2023-05-05T04:00:48.971Z,8.25
2023-05-05T04:03:18.351Z,8.61
2023-05-05T04:05:47.227Z,10.46
2023-05-05T04:08:15.608Z,12.00
2023-05-05T04:10:43.576Z,12.59
2023-05-05T04:13:12.028Z,11.67
2023-05-05T04:15:47.024Z,10.68
2023-05-05T04:18:15.299Z,10.05
2023-05-05T04:20:43.503Z,9.69
2023-05-05T04:23:11.942Z,9.48
2023-05-05T04:25:41.419Z,9.33
2023-05-05T04:28:10.743Z,9.21
2023-05-05T04:30:38.835Z,9.14
2023-05-05T04:33:06.914Z,9.10
2023-05-05T04:35:35.166Z,9.07
2023-05-05T04:38:03.626Z,9.06
2023-05-05T04:40:31.990Z,9.37
2023-05-05T04:43:00.383Z,11.22
2023-05-05T04:45:28.326Z,12.99
2023-05-05T04:47:56.838Z,13.77
2023-05-05T04:50:24.819Z,12.86
2023-05-05T04:52:52.908Z,11.89
2023-05-05T04:55:21.424Z,11.21
2023-05-05T04:57:49.358Z,10.78
2023-05-05T05:00:17.786Z,10.49
2023-05-05T05:02:45.901Z,10.27
2023-05-05T05:05:14.377Z,10.11
2023-05-05T05:07:42.365Z,10.01
2023-05-05T05:10:10.886Z,9.99
2023-05-05T05:12:39.025Z,10.04
2023-05-05T05:15:08.128Z,10.11
2023-05-05T05:17:36.336Z,10.19
2023-05-05T05:20:05.377Z,10.30
2023-05-05T05:22:35.052Z,10.42
2023-05-05T05:25:03.466Z,10.52
2023-05-05T05:27:32.000Z,10.64
2023-05-05T05:30:00.073Z,10.75
2023-05-05T05:32:29.639Z,10.85
2023-05-05T05:34:57.673Z,11.47
2023-05-05T05:37:29.790Z,13.63
2023-05-05T05:39:58.151Z,15.28
2023-05-05T05:42:26.867Z,15.06
2023-05-05T05:44:55.060Z,14.60
2023-05-05T05:47:23.952Z,14.28
2023-05-05T05:49:52.263Z,14.20
2023-05-05T05:52:20.753Z,14.19
2023-05-05T05:54:49.613Z,14.22
2023-05-05T05:57:17.752Z,14.25
2023-05-05T05:59:45.830Z,14.32
2023-05-05T06:02:14.213Z,14.48
2023-05-05T06:04:42.455Z,14.64
2023-05-05T06:07:10.870Z,14.77
2023-05-05T06:09:38.977Z,14.87
2023-05-05T06:12:07.199Z,14.96
2023-05-05T06:14:36.340Z,15.08
2023-05-05T06:17:04.414Z,15.13
2023-05-05T06:19:33.139Z,15.03
2023-05-05T06:22:01.148Z,14.80
2023-05-05T06:24:29.234Z,14.58
2023-05-05T06:26:59.530Z,14.41
2023-05-05T06:29:28.304Z,14.27
2023-05-05T06:31:56.558Z,14.18
2023-05-05T06:34:24.584Z,14.11
2023-05-05T06:36:52.462Z,14.12
2023-05-05T06:39:20.778Z,14.14
2023-05-05T06:41:48.720Z,14.18
2023-05-05T06:44:16.650Z,14.22
2023-05-05T06:46:44.664Z,14.27
2023-05-05T06:49:12.918Z,14.35
2023-05-05T06:51:42.755Z,14.45
2023-05-05T06:54:11.039Z,14.55
2023-05-05T06:56:38.969Z,14.60
2023-05-05T06:59:06.933Z,14.65
2023-05-05T07:01:34.906Z,14.70
2023-05-05T07:04:03.095Z,14.74
2023-05-05T07:06:32.017Z,14.79
2023-05-05T07:08:59.958Z,14.85
2023-05-05T07:11:28.097Z,14.86
2023-05-05T07:13:56.060Z,14.91
2023-05-05T07:16:27.177Z,14.95
2023-05-05T07:18:55.352Z,15.04
2023-05-05T07:21:23.206Z,15.13
2023-05-05T07:23:51.204Z,15.21
2023-05-05T07:26:19.106Z,15.29
2023-05-05T07:28:47.045Z,15.37
2023-05-05T07:31:14.941Z,15.46
2023-05-05T07:33:42.853Z,15.57
2023-05-05T07:36:10.907Z,15.67
2023-05-05T07:38:38.858Z,15.78
2023-05-05T07:41:06.823Z,15.91
2023-05-05T07:43:34.758Z,16.04
2023-05-05T07:46:02.720Z,16.15
2023-05-05T07:48:30.963Z,16.26
2023-05-05T07:50:59.101Z,16.36
2023-05-05T07:53:27.358Z,16.44
2023-05-05T07:55:55.951Z,16.53
2023-05-05T07:58:24.148Z,16.60
2023-05-05T08:00:52.088Z,16.68
2023-05-05T08:03:24.532Z,16.78
2023-05-05T08:05:54.629Z,16.84
2023-05-05T08:08:25.047Z,16.86
2023-05-05T08:10:53.476Z,16.93
2023-05-05T08:13:21.679Z,16.99
2023-05-05T08:15:49.548Z,17.05
2023-05-05T08:18:17.431Z,17.13
2023-05-05T08:20:45.624Z,17.20
2023-05-05T08:23:13.666Z,17.29
2023-05-05T08:25:41.908Z,17.37
2023-05-05T08:28:10.278Z,17.44
2023-05-05T08:30:38.893Z,17.53
2023-05-05T08:33:06.909Z,17.59
2023-05-05T08:35:34.902Z,17.66
2023-05-05T08:38:02.894Z,17.77
2023-05-05T08:40:36.940Z,17.90
2023-05-05T08:43:05.280Z,18.05
2023-05-05T08:45:34.083Z,18.22
2023-05-05T08:48:04.892Z,18.47
2023-05-05T08:50:33.197Z,18.68
2023-05-05T08:53:10.772Z,18.82
2023-05-05T08:55:46.610Z,19.02
2023-05-05T08:58:16.953Z,19.17
2023-05-05T09:00:45.904Z,19.27
2023-05-05T09:03:15.695Z,19.40
2023-05-05T09:05:44.471Z,19.53
2023-05-05T09:08:12.687Z,19.61
2023-05-05T09:10:41.871Z,19.74
2023-05-05T09:13:09.960Z,19.76
2023-05-05T09:15:39.243Z,19.67
2023-05-05T09:18:12.254Z,19.59
2023-05-05T09:20:41.590Z,19.61
2023-05-05T09:23:20.501Z,19.75
2023-05-05T09:26:04.472Z,19.79
2023-05-05T09:28:32.539Z,19.93
2023-05-05T09:31:15.962Z,20.06
2023-05-05T09:33:44.455Z,20.19
2023-05-05T09:36:12.605Z,20.24
2023-05-05T09:38:40.647Z,20.31
2023-05-05T09:41:08.563Z,20.41
2023-05-05T09:43:52.654Z,20.45
2023-05-05T09:46:21.152Z,20.42
2023-05-05T09:48:49.130Z,20.42
2023-05-05T09:51:29.478Z,20.53
2023-05-05T09:53:57.976Z,20.64
2023-05-05T09:56:38.552Z,20.81
2023-05-05T09:59:09.523Z,20.92
2023-05-05T10:01:38.842Z,20.92
2023-05-05T10:04:07.007Z,20.90
2023-05-05T10:06:44.546Z,20.85
2023-05-05T10:09:12.603Z,20.77
2023-05-05T10:11:46.650Z,20.82
2023-05-05T10:14:16.046Z,20.85
2023-05-05T10:16:49.077Z,20.92
2023-05-05T10:19:19.168Z,21.07
2023-05-05T10:22:01.781Z,21.22
2023-05-05T10:24:38.832Z,21.27
2023-05-05T10:27:17.915Z,21.24
2023-05-05T10:29:50.039Z,21.27
2023-05-05T10:32:52.939Z,21.33
2023-05-05T10:35:22.997Z,21.37
2023-05-05T10:37:51.033Z,21.33
2023-05-05T10:40:22.399Z,21.23
2023-05-05T10:42:51.453Z,21.28
2023-05-05T10:45:19.536Z,21.40
2023-05-05T10:47:47.930Z,21.51
2023-05-05T10:50:36.694Z,21.61
2023-05-05T10:53:32.830Z,21.71
2023-05-05T10:56:10.898Z,21.87
2023-05-05T10:58:58.245Z,21.94
2023-05-05T11:01:31.354Z,21.99
2023-05-05T11:04:19.578Z,21.97
2023-05-05T11:07:14.954Z,22.01
2023-05-05T11:10:03.521Z,22.06
2023-05-05T11:12:34.607Z,22.16
2023-05-05T11:15:22.401Z,22.24
2023-05-05T11:17:51.242Z,22.26
2023-05-05T11:20:43.714Z,22.27
2023-05-05T11:23:11.929Z,22.30
2023-05-05T11:25:44.759Z,22.29
2023-05-05T11:28:18.249Z,22.29
2023-05-05T11:30:55.030Z,22.33
2023-05-05T11:33:23.174Z,22.42
2023-05-05T11:35:55.288Z,22.51
2023-05-05T11:39:05.127Z,22.64
2023-05-05T11:41:33.050Z,22.91
2023-05-05T11:44:14.098Z,23.14
2023-05-05T11:47:04.967Z,23.33
2023-05-05T11:49:38.142Z,23.45
2023-05-05T11:52:12.571Z,23.51
2023-05-05T11:54:47.756Z,23.64
2023-05-05T11:57:19.476Z,23.64
2023-05-05T11:59:52.868Z,23.66
2023-05-05T12:02:22.047Z,23.69
2023-05-05T12:04:51.043Z,23.74
2023-05-05T12:07:20.975Z,23.74
2023-05-05T12:09:50.123Z,23.77
2023-05-05T12:12:18.784Z,23.89
2023-05-05T12:14:52.558Z,24.00
2023-05-05T12:17:22.108Z,24.10
2023-05-05T12:19:54.622Z,24.18
2023-05-05T12:22:24.609Z,24.28
2023-05-05T12:25:00.294Z,24.35
2023-05-05T12:27:28.946Z,24.39
2023-05-05T12:30:10.234Z,24.41
2023-05-05T12:32:38.416Z,24.40
2023-05-05T12:35:07.980Z,24.42
2023-05-05T12:37:36.722Z,24.45
2023-05-05T12:40:06.605Z,24.57
2023-05-05T12:42:40.089Z,24.62
2023-05-05T12:45:17.526Z,24.58
2023-05-05T12:47:45.568Z,24.50
2023-05-05T12:50:13.476Z,24.51
2023-05-05T12:52:45.059Z,24.56
2023-05-05T12:55:13.350Z,24.54
2023-05-05T12:58:01.547Z,24.44
2023-05-05T13:00:29.488Z,24.57
2023-05-05T13:02:58.177Z,24.68
2023-05-05T13:05:34.376Z,24.77
2023-05-05T13:08:03.046Z,24.76
2023-05-05T13:10:31.500Z,24.72
2023-05-05T13:12:59.647Z,24.71
2023-05-05T13:15:28.069Z,24.77
2023-05-05T13:18:00.603Z,24.90
2023-05-05T13:20:29.246Z,25.05
2023-05-05T13:22:57.478Z,25.26
2023-05-05T13:25:25.293Z,25.44
2023-05-05T13:27:53.082Z,25.54
2023-05-05T13:30:21.165Z,25.56
2023-05-05T13:32:49.154Z,25.47
2023-05-05T13:35:20.584Z,25.43
2023-05-05T13:37:49.089Z,25.49
2023-05-05T13:40:16.958Z,25.58
2023-05-05T13:42:44.910Z,25.75
2023-05-05T13:45:14.226Z,25.92
2023-05-05T13:47:43.049Z,26.16
2023-05-05T13:50:11.384Z,26.31
2023-05-05T13:52:39.249Z,26.34
2023-05-05T13:55:07.784Z,26.35
2023-05-05T13:57:35.787Z,26.30
2023-05-05T14:00:04.521Z,26.39
2023-05-05T14:02:35.753Z,26.52
2023-05-05T14:05:04.177Z,26.45
2023-05-05T14:07:32.931Z,26.40
2023-05-05T14:10:00.879Z,26.40
2023-05-05T14:12:28.848Z,26.48
2023-05-05T14:14:56.731Z,26.65
2023-05-05T14:17:27.588Z,26.70
2023-05-05T14:19:55.755Z,26.68
2023-05-05T14:22:23.905Z,26.50
2023-05-05T14:24:51.895Z,26.52
2023-05-05T14:27:19.849Z,26.67
2023-05-05T14:29:47.746Z,26.65
2023-05-05T14:32:15.874Z,26.54
2023-05-05T14:34:43.930Z,26.45
2023-05-05T14:37:11.801Z,26.36
2023-05-05T14:39:39.653Z,26.28
2023-05-05T14:42:07.616Z,26.34
2023-05-05T14:44:36.243Z,26.34
2023-05-05T14:47:04.247Z,26.26
2023-05-05T14:49:32.430Z,26.18
2023-05-05T14:52:00.468Z,26.11
2023-05-05T14:54:29.087Z,26.13
2023-05-05T14:56:58.453Z,26.23
2023-05-05T14:59:27.754Z,26.23
2023-05-05T15:01:56.599Z,26.07
2023-05-05T15:04:24.706Z,25.98
2023-05-05T15:06:52.668Z,26.01
2023-05-05T15:09:20.616Z,26.07
2023-05-05T15:11:48.579Z,26.06
2023-05-05T15:14:16.521Z,26.11
2023-05-05T15:16:46.815Z,26.26
2023-05-05T15:19:14.815Z,26.31
2023-05-05T15:21:42.713Z,26.32
2023-05-05T15:24:10.669Z,26.19
2023-05-05T15:26:38.643Z,26.02
2023-05-05T15:29:06.521Z,25.81
2023-05-05T15:31:34.445Z,25.71
2023-05-05T15:34:02.404Z,25.66
2023-05-05T15:36:30.363Z,25.62
2023-05-05T15:38:58.305Z,25.78
2023-05-05T15:41:29.437Z,26.04
2023-05-05T15:43:58.101Z,26.11
2023-05-05T15:46:26.450Z,25.82
2023-05-05T15:48:54.466Z,25.52
2023-05-05T15:51:22.419Z,25.39
2023-05-05T15:53:52.427Z,25.34
2023-05-05T15:56:20.407Z,25.37
2023-05-05T15:58:48.289Z,25.38
2023-05-05T16:01:16.728Z,25.27
2023-05-05T16:03:44.785Z,25.17
2023-05-05T16:06:12.976Z,25.09
2023-05-05T16:08:40.970Z,25.01
2023-05-05T16:11:08.885Z,24.91
2023-05-05T16:13:39.042Z,24.78
2023-05-05T16:16:07.163Z,24.62
2023-05-05T16:18:35.076Z,24.46
2023-05-05T16:21:03.057Z,24.20
2023-05-05T16:23:30.980Z,23.78
2023-05-05T16:25:58.900Z,23.40
2023-05-05T16:28:27.263Z,23.01
2023-05-05T16:30:55.163Z,22.65
2023-05-05T16:33:23.085Z,22.34
2023-05-05T16:35:51.014Z,22.10
2023-05-05T16:38:18.966Z,21.89
2023-05-05T16:40:46.946Z,21.68
2023-05-05T16:43:14.905Z,21.40
2023-05-05T16:45:43.544Z,21.18
2023-05-05T16:48:12.442Z,21.04
2023-05-05T16:50:40.394Z,21.04
2023-05-05T16:53:09.306Z,21.03
2023-05-05T16:55:37.567Z,20.95
2023-05-05T16:58:05.558Z,20.83
2023-05-05T17:00:33.911Z,20.63
2023-05-05T17:03:01.847Z,20.45
2023-05-05T17:05:30.189Z,20.24
2023-05-05T17:07:58.687Z,20.04
2023-05-05T17:10:27.191Z,19.80
2023-05-05T17:12:55.156Z,19.52
2023-05-05T17:15:23.099Z,19.26
2023-05-05T17:17:51.109Z,19.13
2023-05-05T17:20:19.069Z,19.19
2023-05-05T17:22:47.031Z,19.50
2023-05-05T17:25:14.999Z,19.96
2023-05-05T17:27:42.904Z,20.35
2023-05-05T17:30:11.186Z,20.61
2023-05-05T17:32:39.224Z,20.69
2023-05-05T17:35:07.703Z,20.64
2023-05-05T17:37:36.728Z,20.38
2023-05-05T17:40:05.739Z,20.00
2023-05-05T17:42:33.801Z,19.58
2023-05-05T17:45:03.034Z,19.24
2023-05-05T17:47:31.078Z,18.96
2023-05-05T17:49:59.527Z,18.68
2023-05-05T17:52:27.556Z,18.28
2023-05-05T17:54:55.617Z,17.96
2023-05-05T17:57:23.762Z,17.68
2023-05-05T17:59:53.749Z,17.41
2023-05-05T18:02:22.132Z,17.15
2023-05-05T18:04:50.113Z,16.93
2023-05-05T18:07:18.007Z,16.76
2023-05-05T18:09:45.906Z,16.60
2023-05-05T18:12:13.860Z,16.44
2023-05-05T18:14:41.866Z,16.28
2023-05-05T18:17:09.783Z,16.16
2023-05-05T18:19:39.148Z,16.03
2023-05-05T18:22:07.167Z,15.90
2023-05-05T18:24:35.124Z,15.69
2023-05-05T18:27:06.040Z,15.37
2023-05-05T18:29:35.329Z,15.00
2023-05-05T18:32:05.876Z,14.69
2023-05-05T18:34:34.475Z,14.57
2023-05-05T18:37:02.485Z,14.59
2023-05-05T18:39:30.417Z,14.59
2023-05-05T18:41:58.395Z,14.60
2023-05-05T18:44:26.611Z,14.62
2023-05-05T18:46:54.597Z,14.59
2023-05-05T18:49:23.395Z,14.58
2023-05-05T18:51:52.202Z,14.61
2023-05-05T18:54:21.367Z,14.66
2023-05-05T18:56:49.981Z,14.67
2023-05-05T18:59:17.916Z,14.57
2023-05-05T19:01:46.100Z,14.32
2023-05-05T19:04:29.587Z,14.04
2023-05-05T19:06:59.564Z,13.77
2023-05-05T19:09:27.934Z,13.52
2023-05-05T19:11:56.381Z,13.30
2023-05-05T19:14:24.473Z,13.10
2023-05-05T19:16:53.036Z,12.91
2023-05-05T19:19:21.263Z,12.76
2023-05-05T19:21:49.174Z,12.62
2023-05-05T19:24:17.082Z,12.50
2023-05-05T19:26:45.149Z,12.40
2023-05-05T19:29:13.301Z,12.31
2023-05-05T19:31:41.329Z,12.24
2023-05-05T19:34:09.328Z,12.17
2023-05-05T19:36:38.128Z,12.11
2023-05-05T19:39:06.076Z,12.05
2023-05-05T19:41:35.543Z,11.98
2023-05-05T19:44:03.728Z,11.93
2023-05-05T19:46:31.803Z,11.87
2023-05-05T19:48:59.699Z,11.84
2023-05-05T19:51:27.635Z,11.81
2023-05-05T19:53:55.616Z,11.78
2023-05-05T19:56:24.033Z,11.75
2023-05-05T19:58:54.348Z,11.71
2023-05-05T20:01:22.547Z,11.66
2023-05-05T20:03:51.536Z,11.64
2023-05-05T20:06:19.810Z,11.63
2023-05-05T20:08:47.746Z,11.64
2023-05-05T20:11:17.066Z,11.68
2023-05-05T20:13:45.001Z,11.72
2023-05-05T20:16:13.831Z,11.74
2023-05-05T20:18:41.792Z,11.77
2023-05-05T20:21:09.775Z,11.78
2023-05-05T20:23:37.764Z,11.78
2023-05-05T20:26:06.435Z,11.79
2023-05-05T20:28:34.478Z,11.79
2023-05-05T20:31:02.435Z,11.78
2023-05-05T20:33:30.419Z,11.79
2023-05-05T20:35:58.328Z,11.83
2023-05-05T20:38:26.291Z,11.87
2023-05-05T20:40:54.183Z,11.90
2023-05-05T20:43:22.058Z,11.92
2023-05-05T20:45:49.957Z,11.94
2023-05-05T20:48:18.017Z,11.97
2023-05-05T20:50:45.931Z,11.99
2023-05-05T20:53:15.157Z,12.01
2023-05-05T20:55:43.600Z,12.04
2023-05-05T20:58:11.830Z,12.07
2023-05-05T21:00:40.180Z,12.14
2023-05-05T21:03:08.317Z,12.19
2023-05-05T21:05:37.368Z,12.26
2023-05-05T21:08:05.572Z,12.33
2023-05-05T21:10:33.802Z,12.43
2023-05-05T21:13:03.066Z,12.57
2023-05-05T21:15:32.029Z,12.68
2023-05-05T21:18:00.003Z,12.78
2023-05-05T21:20:27.964Z,12.84
2023-05-05T21:22:56.998Z,12.88
2023-05-05T21:25:25.504Z,12.86
2023-05-05T21:27:53.466Z,12.81
2023-05-05T21:30:23.187Z,12.73
2023-05-05T21:32:52.099Z,12.68
2023-05-05T21:35:20.079Z,12.64
2023-05-05T21:37:48.937Z,12.64
2023-05-05T21:40:16.902Z,12.63
2023-05-05T21:42:45.169Z,12.61
2023-05-05T21:45:13.130Z,12.61
2023-05-05T21:47:41.148Z,12.58
2023-05-05T21:50:10.407Z,12.54
2023-05-05T21:52:38.701Z,12.51
2023-05-05T21:55:07.030Z,12.47
2023-05-05T21:57:35.043Z,12.44
2023-05-05T22:00:06.076Z,12.40
2023-05-05T22:02:40.493Z,12.34
2023-05-05T22:05:09.373Z,12.30
2023-05-05T22:07:37.273Z,12.23
2023-05-05T22:10:05.587Z,12.16
2023-05-05T22:12:33.605Z,12.09
2023-05-05T22:15:01.751Z,12.00
2023-05-05T22:17:29.691Z,11.93
2023-05-05T22:19:57.664Z,11.86
2023-05-05T22:22:25.607Z,11.81
2023-05-05T22:24:53.527Z,11.78
2023-05-05T22:27:21.464Z,11.76
2023-05-05T22:29:49.448Z,11.75
2023-05-05T22:32:17.330Z,11.73
2023-05-05T22:34:45.212Z,11.72
2023-05-05T22:37:14.175Z,11.72
2023-05-05T22:39:42.094Z,11.69
2023-05-05T22:42:09.973Z,11.66
2023-05-05T22:44:38.935Z,11.66
2023-05-05T22:47:07.135Z,11.66
2023-05-05T22:49:35.235Z,11.67
2023-05-05T22:52:03.602Z,11.67
2023-05-05T22:54:32.038Z,11.68
2023-05-05T22:57:00.020Z,11.70
2023-05-05T22:59:27.922Z,11.72
2023-05-05T23:01:55.882Z,11.73
2023-05-05T23:04:23.988Z,11.73
2023-05-05T23:06:52.122Z,11.74
2023-05-05T23:09:20.081Z,11.73
2023-05-05T23:11:47.998Z,11.74
2023-05-05T23:14:16.998Z,11.72
2023-05-05T23:16:47.808Z,11.71
2023-05-05T23:19:15.781Z,11.69
2023-05-05T23:21:52.727Z,11.66
2023-05-05T23:24:22.105Z,11.63
2023-05-05T23:26:52.014Z,11.59
2023-05-05T23:29:20.782Z,11.56
2023-05-05T23:31:48.705Z,11.52
2023-05-05T23:34:16.647Z,11.48
2023-05-05T23:36:44.546Z,11.44
2023-05-05T23:39:12.444Z,11.42
2023-05-05T23:41:40.435Z,11.37
2023-05-05T23:44:08.469Z,11.33
2023-05-05T23:46:36.469Z,11.30
2023-05-05T23:49:04.427Z,11.26
2023-05-05T23:51:32.925Z,11.22
2023-05-05T23:54:01.279Z,11.19
2023-05-05T23:56:29.167Z,11.16
2023-05-05T23:58:57.050Z,11.12
